sensor_id;sensor_type;location;lat;lon;timestamp;pressure;altitude;pressure_sealevel;temperature;humidity
54936;BME280;40838;50.676;7.838;2023-03-05T00:02:18;98672.13;;;0.50;100.00
54936;BME280;40838;50.676;7.838;2023-03-05T00:04:44;98672.94;;;0.30;100.00
54936;BME280;40838;50.676;7.838;2023-03-05T00:07:11;98671.13;;;0.31;100.00
54936;BME280;40838;50.676;7.838;2023-03-05T00:09:39;98668.72;;;0.29;100.00
54936;BME280;40838;50.676;7.838;2023-03-05T00:12:08;98674.13;;;-0.05;100.00
54936;BME280;40838;50.676;7.838;2023-03-05T00:14:35;98667.47;;;0.05;100.00
54936;BME280;40838;50.676;7.838;2023-03-05T00:17:03;98670.50;;;0.22;100.00
54936;BME280;40838;50.676;7.838;2023-03-05T00:19:31;98670.53;;;0.35;100.00
54936;BME280;40838;50.676;7.838;2023-03-05T00:21:59;98672.13;;;0.17;100.00
54936;BME280;40838;50.676;7.838;2023-03-05T00:24:26;98664.16;;;-0.30;100.00
54936;BME280;40838;50.676;7.838;2023-03-05T00:26:53;98666.63;;;-0.09;100.00
54936;BME280;40838;50.676;7.838;2023-03-05T00:29:23;98665.81;;;-0.16;100.00
54936;BME280;40838;50.676;7.838;2023-03-05T00:31:49;98664.13;;;-0.43;100.00
54936;BME280;40838;50.676;7.838;2023-03-05T00:34:17;98672.22;;;-0.25;100.00
54936;BME280;40838;50.676;7.838;2023-03-05T00:36:47;98661.00;;;-0.12;100.00
54936;BME280;40838;50.676;7.838;2023-03-05T00:39:16;98661.75;;;-0.38;100.00
54936;BME280;40838;50.676;7.838;2023-03-05T00:41:44;98669.44;;;-0.23;100.00
54936;BME280;40838;50.676;7.838;2023-03-05T00:44:11;98656.41;;;0.03;100.00
54936;BME280;40838;50.676;7.838;2023-03-05T00:46:39;98661.44;;;0.05;100.00
54936;BME280;40838;50.676;7.838;2023-03-05T00:49:06;98651.34;;;-0.05;100.00
54936;BME280;40838;50.676;7.838;2023-03-05T00:51:33;98652.13;;;-0.11;100.00
54936;BME280;40838;50.676;7.838;2023-03-05T00:54:01;98652.94;;;-0.11;100.00
54936;BME280;40838;50.676;7.838;2023-03-05T00:56:30;98649.50;;;-0.11;100.00
54936;BME280;40838;50.676;7.838;2023-03-05T00:58:59;98639.47;;;0.12;100.00
54936;BME280;40838;50.676;7.838;2023-03-05T01:01:25;98638.66;;;0.19;100.00
54936;BME280;40838;50.676;7.838;2023-03-05T01:03:54;98646.84;;;-0.38;100.00
54936;BME280;40838;50.676;7.838;2023-03-05T01:06:22;98638.81;;;-0.29;100.00
54936;BME280;40838;50.676;7.838;2023-03-05T01:08:49;98641.44;;;-0.29;100.00
54936;BME280;40838;50.676;7.838;2023-03-05T01:11:16;98637.25;;;-0.79;100.00
54936;BME280;40838;50.676;7.838;2023-03-05T01:13:43;98634.88;;;-0.60;100.00
54936;BME280;40838;50.676;7.838;2023-03-05T01:16:10;98636.16;;;-0.43;100.00
54936;BME280;40838;50.676;7.838;2023-03-05T01:18:37;98632.75;;;-0.30;100.00
54936;BME280;40838;50.676;7.838;2023-03-05T01:21:06;98641.25;;;-0.15;100.00
54936;BME280;40838;50.676;7.838;2023-03-05T01:23:33;98628.41;;;-0.03;100.00
54936;BME280;40838;50.676;7.838;2023-03-05T01:26:02;98630.59;;;-0.06;100.00
54936;BME280;40838;50.676;7.838;2023-03-05T01:28:34;98618.31;;;0.21;100.00
54936;BME280;40838;50.676;7.838;2023-03-05T01:31:06;98619.13;;;0.08;100.00
54936;BME280;40838;50.676;7.838;2023-03-05T01:33:34;98621.41;;;-0.50;100.00
54936;BME280;40838;50.676;7.838;2023-03-05T01:36:01;98620.25;;;-0.28;100.00
54936;BME280;40838;50.676;7.838;2023-03-05T01:38:30;98621.31;;;-0.09;100.00
54936;BME280;40838;50.676;7.838;2023-03-05T01:40:59;98614.84;;;-0.26;100.00
54936;BME280;40838;50.676;7.838;2023-03-05T01:43:27;98613.16;;;-0.54;100.00
54936;BME280;40838;50.676;7.838;2023-03-05T01:46:30;98609.19;;;-0.37;100.00
54936;BME280;40838;50.676;7.838;2023-03-05T01:51:47;98613.72;;;-0.65;100.00
54936;BME280;40838;50.676;7.838;2023-03-05T01:54:19;98610.59;;;-0.41;100.00
54936;BME280;40838;50.676;7.838;2023-03-05T01:56:48;98608.16;;;-0.42;100.00
54936;BME280;40838;50.676;7.838;2023-03-05T01:59:16;98600.91;;;-0.47;100.00
54936;BME280;40838;50.676;7.838;2023-03-05T02:04:14;98605.13;;;-0.52;100.00
54936;BME280;40838;50.676;7.838;2023-03-05T02:06:43;98594.69;;;-0.26;100.00
54936;BME280;40838;50.676;7.838;2023-03-05T02:09:11;98589.25;;;-0.24;100.00
54936;BME280;40838;50.676;7.838;2023-03-05T02:11:40;98586.03;;;-0.26;100.00
54936;BME280;40838;50.676;7.838;2023-03-05T02:14:08;98590.25;;;-0.32;100.00
54936;BME280;40838;50.676;7.838;2023-03-05T02:16:36;98581.97;;;-0.49;100.00
54936;BME280;40838;50.676;7.838;2023-03-05T02:19:07;98577.19;;;-0.32;100.00
54936;BME280;40838;50.676;7.838;2023-03-05T02:21:39;98575.53;;;-0.40;100.00
54936;BME280;40838;50.676;7.838;2023-03-05T02:24:10;98571.66;;;-0.70;100.00
54936;BME280;40838;50.676;7.838;2023-03-05T02:26:37;98561.44;;;-0.39;100.00
54936;BME280;40838;50.676;7.838;2023-03-05T02:29:07;98569.72;;;-0.09;100.00
54936;BME280;40838;50.676;7.838;2023-03-05T02:31:35;98563.69;;;-0.22;100.00
54936;BME280;40838;50.676;7.838;2023-03-05T02:34:05;98564.47;;;-0.15;100.00
54936;BME280;40838;50.676;7.838;2023-03-05T02:36:33;98556.03;;;-0.37;100.00
54936;BME280;40838;50.676;7.838;2023-03-05T02:39:03;98559.25;;;-0.22;100.00
54936;BME280;40838;50.676;7.838;2023-03-05T02:41:33;98546.75;;;-0.53;100.00
54936;BME280;40838;50.676;7.838;2023-03-05T02:44:06;98548.78;;;-0.22;100.00
54936;BME280;40838;50.676;7.838;2023-03-05T02:46:33;98538.50;;;-0.30;100.00
54936;BME280;40838;50.676;7.838;2023-03-05T02:49:03;98537.31;;;-0.21;100.00
54936;BME280;40838;50.676;7.838;2023-03-05T02:51:32;98544.97;;;-0.33;100.00
54936;BME280;40838;50.676;7.838;2023-03-05T02:53:59;98545.16;;;-0.41;100.00
54936;BME280;40838;50.676;7.838;2023-03-05T02:56:29;98543.50;;;-0.42;100.00
54936;BME280;40838;50.676;7.838;2023-03-05T02:58:56;98539.09;;;-0.48;100.00
54936;BME280;40838;50.676;7.838;2023-03-05T03:01:23;98536.06;;;-0.25;100.00
54936;BME280;40838;50.676;7.838;2023-03-05T03:03:52;98520.38;;;-0.25;100.00
54936;BME280;40838;50.676;7.838;2023-03-05T03:06:19;98527.41;;;-0.39;100.00
54936;BME280;40838;50.676;7.838;2023-03-05T03:08:46;98524.38;;;-0.36;100.00
54936;BME280;40838;50.676;7.838;2023-03-05T03:11:13;98525.59;;;-0.51;100.00
54936;BME280;40838;50.676;7.838;2023-03-05T03:13:41;98523.19;;;-0.46;100.00
54936;BME280;40838;50.676;7.838;2023-03-05T03:16:09;98521.78;;;-0.49;100.00
54936;BME280;40838;50.676;7.838;2023-03-05T03:18:37;98515.97;;;-0.44;100.00
54936;BME280;40838;50.676;7.838;2023-03-05T03:21:04;98517.34;;;-0.62;100.00
54936;BME280;40838;50.676;7.838;2023-03-05T03:23:33;98517.13;;;-0.54;100.00
54936;BME280;40838;50.676;7.838;2023-03-05T03:26:01;98518.16;;;-0.61;100.00
54936;BME280;40838;50.676;7.838;2023-03-05T03:28:28;98512.09;;;-0.42;100.00
54936;BME280;40838;50.676;7.838;2023-03-05T03:30:56;98514.72;;;-0.55;100.00
54936;BME280;40838;50.676;7.838;2023-03-05T03:33:23;98516.34;;;-0.67;100.00
54936;BME280;40838;50.676;7.838;2023-03-05T03:35:50;98511.09;;;-0.61;100.00
54936;BME280;40838;50.676;7.838;2023-03-05T03:38:17;98513.53;;;-0.52;100.00
54936;BME280;40838;50.676;7.838;2023-03-05T03:40:44;98516.13;;;-0.72;100.00
54936;BME280;40838;50.676;7.838;2023-03-05T03:43:11;98511.69;;;-0.85;100.00
54936;BME280;40838;50.676;7.838;2023-03-05T03:45:40;98510.84;;;-0.86;100.00
54936;BME280;40838;50.676;7.838;2023-03-05T03:48:08;98509.03;;;-0.92;100.00
54936;BME280;40838;50.676;7.838;2023-03-05T03:50:38;98502.00;;;-0.71;100.00
54936;BME280;40838;50.676;7.838;2023-03-05T03:53:09;98513.84;;;-0.89;100.00
54936;BME280;40838;50.676;7.838;2023-03-05T03:55:40;98499.56;;;-1.00;100.00
54936;BME280;40838;50.676;7.838;2023-03-05T03:58:08;98497.56;;;-0.91;100.00
54936;BME280;40838;50.676;7.838;2023-03-05T04:00:35;98499.72;;;-1.14;100.00
54936;BME280;40838;50.676;7.838;2023-03-05T04:03:02;98493.16;;;-1.45;100.00
54936;BME280;40838;50.676;7.838;2023-03-05T04:05:30;98492.47;;;-1.19;100.00
54936;BME280;40838;50.676;7.838;2023-03-05T04:07:57;98489.94;;;-1.47;100.00
54936;BME280;40838;50.676;7.838;2023-03-05T04:10:26;98486.22;;;-1.18;100.00
54936;BME280;40838;50.676;7.838;2023-03-05T04:12:53;98487.47;;;-1.07;100.00
54936;BME280;40838;50.676;7.838;2023-03-05T04:15:20;98482.28;;;-0.87;100.00
54936;BME280;40838;50.676;7.838;2023-03-05T04:17:47;98478.19;;;-1.23;100.00
54936;BME280;40838;50.676;7.838;2023-03-05T04:20:14;98479.13;;;-1.37;100.00
54936;BME280;40838;50.676;7.838;2023-03-05T04:22:42;98476.56;;;-1.24;100.00
54936;BME280;40838;50.676;7.838;2023-03-05T04:25:09;98472.94;;;-1.23;100.00
54936;BME280;40838;50.676;7.838;2023-03-05T04:27:36;98467.34;;;-1.13;100.00
54936;BME280;40838;50.676;7.838;2023-03-05T04:30:06;98468.34;;;-1.08;100.00
54936;BME280;40838;50.676;7.838;2023-03-05T04:32:34;98471.78;;;-1.14;100.00
54936;BME280;40838;50.676;7.838;2023-03-05T04:35:01;98463.94;;;-1.07;100.00
54936;BME280;40838;50.676;7.838;2023-03-05T04:37:28;98460.13;;;-1.11;100.00
54936;BME280;40838;50.676;7.838;2023-03-05T04:39:57;98466.31;;;-1.19;100.00
54936;BME280;40838;50.676;7.838;2023-03-05T04:42:23;98461.31;;;-1.14;100.00
54936;BME280;40838;50.676;7.838;2023-03-05T04:44:51;98461.25;;;-1.27;100.00
54936;BME280;40838;50.676;7.838;2023-03-05T04:47:18;98457.38;;;-1.45;100.00
54936;BME280;40838;50.676;7.838;2023-03-05T04:49:45;98460.22;;;-1.33;100.00
54936;BME280;40838;50.676;7.838;2023-03-05T04:52:12;98455.56;;;-1.51;100.00
54936;BME280;40838;50.676;7.838;2023-03-05T04:54:39;98460.63;;;-1.29;100.00
54936;BME280;40838;50.676;7.838;2023-03-05T04:57:08;98450.06;;;-0.94;100.00
54936;BME280;40838;50.676;7.838;2023-03-05T04:59:36;98446.22;;;-1.12;100.00
54936;BME280;40838;50.676;7.838;2023-03-05T05:02:06;98450.19;;;-1.36;100.00
54936;BME280;40838;50.676;7.838;2023-03-05T05:04:34;98441.50;;;-1.50;100.00
54936;BME280;40838;50.676;7.838;2023-03-05T05:07:02;98442.16;;;-1.28;100.00
54936;BME280;40838;50.676;7.838;2023-03-05T05:09:30;98435.75;;;-1.12;100.00
54936;BME280;40838;50.676;7.838;2023-03-05T05:11:57;98436.31;;;-1.30;100.00
54936;BME280;40838;50.676;7.838;2023-03-05T05:14:25;98425.69;;;-1.15;100.00
54936;BME280;40838;50.676;7.838;2023-03-05T05:16:52;98433.94;;;-1.18;100.00
54936;BME280;40838;50.676;7.838;2023-03-05T05:19:19;98430.97;;;-1.70;100.00
54936;BME280;40838;50.676;7.838;2023-03-05T05:21:46;98428.44;;;-1.43;100.00
54936;BME280;40838;50.676;7.838;2023-03-05T05:24:13;98426.88;;;-1.31;100.00
54936;BME280;40838;50.676;7.838;2023-03-05T05:26:40;98417.44;;;-1.32;100.00
54936;BME280;40838;50.676;7.838;2023-03-05T05:29:06;98424.03;;;-1.36;100.00
54936;BME280;40838;50.676;7.838;2023-03-05T05:31:36;98421.97;;;-1.60;100.00
54936;BME280;40838;50.676;7.838;2023-03-05T05:34:03;98428.91;;;-1.26;100.00
54936;BME280;40838;50.676;7.838;2023-03-05T05:36:30;98427.69;;;-1.24;100.00
54936;BME280;40838;50.676;7.838;2023-03-05T05:38:59;98433.28;;;-1.33;100.00
54936;BME280;40838;50.676;7.838;2023-03-05T05:41:26;98426.91;;;-1.17;100.00
54936;BME280;40838;50.676;7.838;2023-03-05T05:43:53;98434.47;;;-1.49;100.00
54936;BME280;40838;50.676;7.838;2023-03-05T05:46:20;98430.03;;;-1.49;100.00
54936;BME280;40838;50.676;7.838;2023-03-05T05:48:50;98427.88;;;-1.32;100.00
54936;BME280;40838;50.676;7.838;2023-03-05T05:51:19;98423.47;;;-1.31;100.00
54936;BME280;40838;50.676;7.838;2023-03-05T05:53:46;98427.03;;;-1.39;100.00
54936;BME280;40838;50.676;7.838;2023-03-05T05:56:14;98429.81;;;-1.60;100.00
54936;BME280;40838;50.676;7.838;2023-03-05T05:58:44;98428.00;;;-1.53;100.00
54936;BME280;40838;50.676;7.838;2023-03-05T06:01:13;98423.63;;;-1.94;100.00
54936;BME280;40838;50.676;7.838;2023-03-05T06:03:41;98424.81;;;-1.42;100.00
54936;BME280;40838;50.676;7.838;2023-03-05T06:06:11;98434.03;;;-1.53;100.00
54936;BME280;40838;50.676;7.838;2023-03-05T06:08:40;98431.31;;;-1.31;100.00
54936;BME280;40838;50.676;7.838;2023-03-05T06:11:09;98435.16;;;-1.14;100.00
54936;BME280;40838;50.676;7.838;2023-03-05T06:13:36;98425.75;;;-1.70;100.00
54936;BME280;40838;50.676;7.838;2023-03-05T06:16:06;98430.84;;;-1.48;100.00
54936;BME280;40838;50.676;7.838;2023-03-05T06:18:33;98432.25;;;-1.46;100.00
54936;BME280;40838;50.676;7.838;2023-03-05T06:21:03;98435.91;;;-1.40;100.00
54936;BME280;40838;50.676;7.838;2023-03-05T06:23:32;98430.13;;;-1.22;100.00
54936;BME280;40838;50.676;7.838;2023-03-05T06:25:59;98427.34;;;-0.94;100.00
54936;BME280;40838;50.676;7.838;2023-03-05T06:28:27;98432.78;;;-1.02;100.00
54936;BME280;40838;50.676;7.838;2023-03-05T06:31:01;98433.13;;;-1.25;100.00
54936;BME280;40838;50.676;7.838;2023-03-05T06:33:28;98438.56;;;-1.13;100.00
54936;BME280;40838;50.676;7.838;2023-03-05T06:35:55;98426.69;;;-1.16;100.00
54936;BME280;40838;50.676;7.838;2023-03-05T06:38:22;98433.69;;;-1.30;100.00
54936;BME280;40838;50.676;7.838;2023-03-05T06:40:50;98439.13;;;-1.38;100.00
54936;BME280;40838;50.676;7.838;2023-03-05T06:43:17;98431.88;;;-1.36;100.00
54936;BME280;40838;50.676;7.838;2023-03-05T06:45:44;98426.06;;;-1.38;100.00
54936;BME280;40838;50.676;7.838;2023-03-05T06:48:11;98426.31;;;-1.13;100.00
54936;BME280;40838;50.676;7.838;2023-03-05T06:50:38;98420.44;;;-1.28;100.00
54936;BME280;40838;50.676;7.838;2023-03-05T06:53:06;98415.06;;;-0.87;100.00
54936;BME280;40838;50.676;7.838;2023-03-05T06:55:35;98414.47;;;-0.95;100.00
54936;BME280;40838;50.676;7.838;2023-03-05T06:58:07;98419.69;;;-0.89;100.00
54936;BME280;40838;50.676;7.838;2023-03-05T07:00:34;98410.25;;;-0.96;100.00
54936;BME280;40838;50.676;7.838;2023-03-05T07:03:01;98415.25;;;-0.95;100.00
54936;BME280;40838;50.676;7.838;2023-03-05T07:05:27;98411.06;;;-0.76;100.00
54936;BME280;40838;50.676;7.838;2023-03-05T07:07:54;98407.03;;;-0.72;100.00
54936;BME280;40838;50.676;7.838;2023-03-05T07:10:21;98406.81;;;-0.84;100.00
54936;BME280;40838;50.676;7.838;2023-03-05T07:12:49;98403.22;;;-0.76;100.00
54936;BME280;40838;50.676;7.838;2023-03-05T07:15:17;98406.63;;;-1.02;100.00
54936;BME280;40838;50.676;7.838;2023-03-05T07:17:44;98412.84;;;-1.10;100.00
54936;BME280;40838;50.676;7.838;2023-03-05T07:20:12;98418.03;;;-1.30;100.00
54936;BME280;40838;50.676;7.838;2023-03-05T07:22:39;98409.22;;;-0.95;100.00
54936;BME280;40838;50.676;7.838;2023-03-05T07:25:09;98410.44;;;-0.78;100.00
54936;BME280;40838;50.676;7.838;2023-03-05T07:27:37;98409.63;;;-0.98;100.00
54936;BME280;40838;50.676;7.838;2023-03-05T07:30:05;98411.13;;;-1.51;100.00
54936;BME280;40838;50.676;7.838;2023-03-05T07:32:36;98410.00;;;-1.22;100.00
54936;BME280;40838;50.676;7.838;2023-03-05T07:35:03;98410.44;;;-1.11;100.00
54936;BME280;40838;50.676;7.838;2023-03-05T07:37:30;98408.63;;;-1.11;100.00
54936;BME280;40838;50.676;7.838;2023-03-05T07:39:56;98398.75;;;-1.09;100.00
54936;BME280;40838;50.676;7.838;2023-03-05T07:42:23;98411.59;;;-1.34;100.00
54936;BME280;40838;50.676;7.838;2023-03-05T07:45:03;98404.81;;;-1.08;100.00
54936;BME280;40838;50.676;7.838;2023-03-05T07:47:30;98401.78;;;-0.52;100.00
54936;BME280;40838;50.676;7.838;2023-03-05T07:49:58;98395.94;;;-0.54;100.00
54936;BME280;40838;50.676;7.838;2023-03-05T07:52:25;98395.75;;;-0.52;100.00
54936;BME280;40838;50.676;7.838;2023-03-05T07:54:51;98396.75;;;-0.60;100.00
54936;BME280;40838;50.676;7.838;2023-03-05T07:57:18;98396.53;;;-0.45;100.00
54936;BME280;40838;50.676;7.838;2023-03-05T07:59:45;98393.34;;;-0.61;100.00
54936;BME280;40838;50.676;7.838;2023-03-05T08:02:12;98393.31;;;-0.54;100.00
54936;BME280;40838;50.676;7.838;2023-03-05T08:04:39;98397.16;;;-0.96;100.00
54936;BME280;40838;50.676;7.838;2023-03-05T08:07:09;98399.16;;;-0.92;100.00
54936;BME280;40838;50.676;7.838;2023-03-05T08:09:36;98390.72;;;-0.61;100.00
54936;BME280;40838;50.676;7.838;2023-03-05T08:12:03;98386.28;;;-0.40;100.00
54936;BME280;40838;50.676;7.838;2023-03-05T08:14:30;98395.16;;;-0.81;100.00
54936;BME280;40838;50.676;7.838;2023-03-05T08:16:56;98387.91;;;-0.52;100.00
54936;BME280;40838;50.676;7.838;2023-03-05T08:19:23;98391.94;;;-0.50;100.00
54936;BME280;40838;50.676;7.838;2023-03-05T08:21:50;98384.00;;;-0.17;100.00
54936;BME280;40838;50.676;7.838;2023-03-05T08:24:18;98384.47;;;-0.80;100.00
54936;BME280;40838;50.676;7.838;2023-03-05T08:26:45;98377.59;;;-0.47;100.00
54936;BME280;40838;50.676;7.838;2023-03-05T08:29:12;98371.59;;;-0.55;100.00
54936;BME280;40838;50.676;7.838;2023-03-05T08:31:44;98379.19;;;-0.26;100.00
54936;BME280;40838;50.676;7.838;2023-03-05T08:34:11;98370.13;;;-0.31;100.00
54936;BME280;40838;50.676;7.838;2023-03-05T08:36:38;98363.13;;;-0.43;100.00
54936;BME280;40838;50.676;7.838;2023-03-05T08:39:05;98367.34;;;0.29;100.00
54936;BME280;40838;50.676;7.838;2023-03-05T08:41:34;98355.94;;;0.49;100.00
54936;BME280;40838;50.676;7.838;2023-03-05T08:44:01;98352.91;;;0.52;100.00
54936;BME280;40838;50.676;7.838;2023-03-05T08:46:29;98352.34;;;-0.15;100.00
54936;BME280;40838;50.676;7.838;2023-03-05T08:48:55;98350.75;;;-0.03;100.00
54936;BME280;40838;50.676;7.838;2023-03-05T08:51:23;98345.09;;;0.00;100.00
54936;BME280;40838;50.676;7.838;2023-03-05T08:53:52;98346.44;;;0.54;100.00
54936;BME280;40838;50.676;7.838;2023-03-05T08:56:19;98351.53;;;0.49;100.00
54936;BME280;40838;50.676;7.838;2023-03-05T08:58:47;98357.66;;;0.68;100.00
54936;BME280;40838;50.676;7.838;2023-03-05T09:01:14;98352.28;;;0.18;100.00
54936;BME280;40838;50.676;7.838;2023-03-05T09:03:41;98351.34;;;-0.01;100.00
54936;BME280;40838;50.676;7.838;2023-03-05T09:06:09;98344.47;;;0.43;100.00
54936;BME280;40838;50.676;7.838;2023-03-05T09:08:38;98337.81;;;0.02;100.00
54936;BME280;40838;50.676;7.838;2023-03-05T09:11:06;98339.03;;;0.06;100.00
54936;BME280;40838;50.676;7.838;2023-03-05T09:13:34;98347.59;;;-0.45;100.00
54936;BME280;40838;50.676;7.838;2023-03-05T09:16:04;98343.00;;;-0.56;100.00
54936;BME280;40838;50.676;7.838;2023-03-05T09:18:31;98341.16;;;-0.42;100.00
54936;BME280;40838;50.676;7.838;2023-03-05T09:21:03;98336.38;;;0.13;100.00
54936;BME280;40838;50.676;7.838;2023-03-05T09:23:30;98335.28;;;-0.24;100.00
54936;BME280;40838;50.676;7.838;2023-03-05T09:25:57;98326.91;;;0.12;100.00
54936;BME280;40838;50.676;7.838;2023-03-05T09:28:23;98320.63;;;0.51;100.00
54936;BME280;40838;50.676;7.838;2023-03-05T09:30:50;98307.47;;;1.33;100.00
54936;BME280;40838;50.676;7.838;2023-03-05T09:33:18;98312.44;;;1.23;100.00
54936;BME280;40838;50.676;7.838;2023-03-05T09:35:45;98316.09;;;1.59;100.00
54936;BME280;40838;50.676;7.838;2023-03-05T09:38:13;98314.22;;;1.84;100.00
54936;BME280;40838;50.676;7.838;2023-03-05T09:40:45;98319.78;;;2.55;100.00
54936;BME280;40838;50.676;7.838;2023-03-05T09:43:25;98308.94;;;2.03;100.00
54936;BME280;40838;50.676;7.838;2023-03-05T09:46:04;98305.59;;;1.40;100.00
54936;BME280;40838;50.676;7.838;2023-03-05T09:48:47;98305.75;;;1.02;100.00
54936;BME280;40838;50.676;7.838;2023-03-05T09:51:20;98303.00;;;0.33;100.00
54936;BME280;40838;50.676;7.838;2023-03-05T09:53:52;98303.63;;;0.61;100.00
54936;BME280;40838;50.676;7.838;2023-03-05T09:56:27;98302.50;;;0.81;100.00
54936;BME280;40838;50.676;7.838;2023-03-05T09:58:58;98306.00;;;0.37;100.00
54936;BME280;40838;50.676;7.838;2023-03-05T10:01:28;98299.22;;;0.23;100.00
54936;BME280;40838;50.676;7.838;2023-03-05T10:04:08;98302.59;;;-0.02;100.00
54936;BME280;40838;50.676;7.838;2023-03-05T10:06:46;98300.56;;;0.00;100.00
54936;BME280;40838;50.676;7.838;2023-03-05T10:09:20;98295.22;;;-0.32;100.00
54936;BME280;40838;50.676;7.838;2023-03-05T10:11:53;98304.66;;;0.28;100.00
54936;BME280;40838;50.676;7.838;2023-03-05T10:14:27;98303.38;;;0.37;100.00
54936;BME280;40838;50.676;7.838;2023-03-05T10:17:02;98293.63;;;0.51;100.00
54936;BME280;40838;50.676;7.838;2023-03-05T10:19:52;98295.19;;;0.84;100.00
54936;BME280;40838;50.676;7.838;2023-03-05T10:22:22;98289.53;;;0.87;100.00
54936;BME280;40838;50.676;7.838;2023-03-05T10:25:02;98285.19;;;0.74;100.00
54936;BME280;40838;50.676;7.838;2023-03-05T10:27:43;98277.75;;;0.71;100.00
54936;BME280;40838;50.676;7.838;2023-03-05T10:30:34;98270.63;;;0.53;100.00
54936;BME280;40838;50.676;7.838;2023-03-05T10:33:19;98270.25;;;0.18;100.00
54936;BME280;40838;50.676;7.838;2023-03-05T10:39:15;98269.44;;;0.17;100.00
54936;BME280;40838;50.676;7.838;2023-03-05T10:41:55;98260.28;;;0.33;100.00
54936;BME280;40838;50.676;7.838;2023-03-05T10:44:32;98269.47;;;0.74;100.00
54936;BME280;40838;50.676;7.838;2023-03-05T10:47:14;98271.13;;;-0.47;100.00
54936;BME280;40838;50.676;7.838;2023-03-05T10:49:47;98263.66;;;-0.43;100.00
54936;BME280;40838;50.676;7.838;2023-03-05T10:52:17;98258.34;;;-0.23;100.00
54936;BME280;40838;50.676;7.838;2023-03-05T10:54:45;98258.75;;;0.19;100.00
54936;BME280;40838;50.676;7.838;2023-03-05T10:57:17;98258.44;;;0.02;100.00
54936;BME280;40838;50.676;7.838;2023-03-05T10:59:47;98251.75;;;0.12;100.00
54936;BME280;40838;50.676;7.838;2023-03-05T11:02:16;98245.59;;;0.25;100.00
54936;BME280;40838;50.676;7.838;2023-03-05T11:04:43;98243.22;;;0.24;100.00
54936;BME280;40838;50.676;7.838;2023-03-05T11:07:44;98237.53;;;0.58;100.00
54936;BME280;40838;50.676;7.838;2023-03-05T11:10:17;98236.44;;;0.66;100.00
54936;BME280;40838;50.676;7.838;2023-03-05T11:12:46;98230.84;;;1.06;100.00
54936;BME280;40838;50.676;7.838;2023-03-05T11:15:23;98231.88;;;1.23;100.00
54936;BME280;40838;50.676;7.838;2023-03-05T11:18:19;98228.22;;;1.24;100.00
54936;BME280;40838;50.676;7.838;2023-03-05T11:20:49;98227.66;;;0.29;100.00
54936;BME280;40838;50.676;7.838;2023-03-05T11:23:20;98234.41;;;0.43;100.00
54936;BME280;40838;50.676;7.838;2023-03-05T11:25:59;98218.00;;;0.29;100.00
54936;BME280;40838;50.676;7.838;2023-03-05T11:28:31;98220.00;;;-0.04;100.00
54936;BME280;40838;50.676;7.838;2023-03-05T11:31:02;98214.28;;;0.12;100.00
54936;BME280;40838;50.676;7.838;2023-03-05T11:33:30;98216.47;;;-0.23;100.00
54936;BME280;40838;50.676;7.838;2023-03-05T11:36:23;98214.16;;;-0.06;100.00
54936;BME280;40838;50.676;7.838;2023-03-05T11:38:53;98219.94;;;0.41;100.00
54936;BME280;40838;50.676;7.838;2023-03-05T11:41:27;98212.72;;;0.61;100.00
54936;BME280;40838;50.676;7.838;2023-03-05T11:43:55;98210.00;;;1.11;100.00
54936;BME280;40838;50.676;7.838;2023-03-05T11:46:24;98217.53;;;1.26;100.00
54936;BME280;40838;50.676;7.838;2023-03-05T11:48:53;98207.84;;;0.83;100.00
54936;BME280;40838;50.676;7.838;2023-03-05T11:51:25;98201.22;;;0.80;100.00
54936;BME280;40838;50.676;7.838;2023-03-05T11:53:55;98199.00;;;1.21;100.00
54936;BME280;40838;50.676;7.838;2023-03-05T11:56:28;98205.88;;;0.78;100.00
54936;BME280;40838;50.676;7.838;2023-03-05T11:59:00;98196.28;;;0.91;100.00
54936;BME280;40838;50.676;7.838;2023-03-05T12:01:30;98194.59;;;0.78;100.00
54936;BME280;40838;50.676;7.838;2023-03-05T12:03:57;98185.44;;;1.06;100.00
54936;BME280;40838;50.676;7.838;2023-03-05T12:06:28;98182.69;;;0.57;100.00
54936;BME280;40838;50.676;7.838;2023-03-05T12:09:02;98183.03;;;0.61;100.00
54936;BME280;40838;50.676;7.838;2023-03-05T12:11:34;98178.31;;;0.69;100.00
54936;BME280;40838;50.676;7.838;2023-03-05T12:14:08;98172.53;;;0.42;100.00
54936;BME280;40838;50.676;7.838;2023-03-05T12:16:41;98169.94;;;0.61;100.00
54936;BME280;40838;50.676;7.838;2023-03-05T12:19:27;98165.50;;;0.61;100.00
54936;BME280;40838;50.676;7.838;2023-03-05T12:21:57;98157.47;;;0.99;100.00
54936;BME280;40838;50.676;7.838;2023-03-05T12:24:35;98158.50;;;0.30;100.00
54936;BME280;40838;50.676;7.838;2023-03-05T12:27:13;98153.91;;;0.25;100.00
54936;BME280;40838;50.676;7.838;2023-03-05T12:29:46;98155.44;;;0.08;100.00
54936;BME280;40838;50.676;7.838;2023-03-05T12:35:27;98139.38;;;0.29;100.00
54936;BME280;40838;50.676;7.838;2023-03-05T12:38:04;98156.53;;;0.00;100.00
54936;BME280;40838;50.676;7.838;2023-03-05T12:40:32;98144.81;;;-0.36;100.00
54936;BME280;40838;50.676;7.838;2023-03-05T12:43:01;98144.91;;;-0.49;100.00
54936;BME280;40838;50.676;7.838;2023-03-05T12:45:41;98141.25;;;-0.41;100.00
54936;BME280;40838;50.676;7.838;2023-03-05T12:48:43;98143.38;;;-1.28;100.00
54936;BME280;40838;50.676;7.838;2023-03-05T12:51:27;98139.25;;;-0.91;100.00
54936;BME280;40838;50.676;7.838;2023-03-05T12:53:56;98132.97;;;-0.38;100.00
54936;BME280;40838;50.676;7.838;2023-03-05T12:56:28;98127.81;;;-0.20;100.00
54936;BME280;40838;50.676;7.838;2023-03-05T12:59:02;98120.06;;;0.24;100.00
54936;BME280;40838;50.676;7.838;2023-03-05T13:01:36;98116.69;;;0.42;100.00
54936;BME280;40838;50.676;7.838;2023-03-05T13:04:14;98113.63;;;0.45;100.00
54936;BME280;40838;50.676;7.838;2023-03-05T13:06:44;98100.69;;;0.68;100.00
54936;BME280;40838;50.676;7.838;2023-03-05T13:09:16;98109.47;;;0.37;100.00
54936;BME280;40838;50.676;7.838;2023-03-05T13:11:45;98099.56;;;0.39;100.00
54936;BME280;40838;50.676;7.838;2023-03-05T13:14:40;98097.97;;;0.38;100.00
54936;BME280;40838;50.676;7.838;2023-03-05T13:20:28;98090.69;;;0.95;100.00
54936;BME280;40838;50.676;7.838;2023-03-05T13:23:13;98083.88;;;0.76;100.00